createdAt,value
2022-09-15T00:02:18.269Z,52.48
2022-09-15T00:04:45.786Z,52.46
2022-09-15T00:07:13.033Z,52.41
2022-09-15T00:09:40.316Z,52.42
2022-09-15T00:12:07.774Z,52.63
2022-09-15T00:14:35.030Z,52.73
2022-09-15T00:17:02.211Z,52.80
2022-09-15T00:19:29.614Z,52.78
2022-09-15T00:22:00.447Z,52.77
2022-09-15T00:24:27.851Z,52.84
2022-09-15T00:26:55.173Z,52.96
2022-09-15T00:29:22.332Z,53.07
2022-09-15T00:31:49.401Z,53.55
2022-09-15T00:34:16.637Z,53.95
2022-09-15T00:36:43.901Z,54.54
2022-09-15T00:39:11.073Z,54.68
2022-09-15T00:41:40.645Z,55.12
2022-09-15T00:44:36.457Z,54.85
2022-09-15T00:47:21.555Z,55.05
2022-09-15T00:49:58.381Z,55.03
2022-09-15T00:52:29.760Z,54.95
2022-09-15T00:55:07.572Z,54.79
2022-09-15T00:57:40.509Z,54.95
2022-09-15T01:00:12.664Z,54.93
2022-09-15T01:02:43.911Z,54.81
2022-09-15T01:05:20.747Z,54.72
2022-09-15T01:08:19.839Z,54.62
2022-09-15T01:10:57.895Z,54.52
2022-09-15T01:13:34.717Z,54.37
2022-09-15T01:16:53.444Z,54.41
2022-09-15T01:20:10.156Z,54.30
2022-09-15T01:23:13.176Z,54.26
2022-09-15T01:25:52.602Z,54.33
2022-09-15T01:28:33.803Z,54.66
2022-09-15T01:31:34.093Z,54.74
2022-09-15T01:34:18.454Z,54.49
2022-09-15T01:37:04.537Z,54.48
2022-09-15T01:40:03.006Z,54.43
2022-09-15T01:42:32.663Z,54.43
2022-09-15T01:45:07.540Z,54.54
2022-09-15T01:47:37.029Z,54.45
2022-09-15T01:50:22.748Z,54.46
2022-09-15T01:52:54.086Z,54.45
2022-09-15T01:55:31.999Z,54.44
2022-09-15T01:57:59.933Z,54.56
2022-09-15T02:00:27.168Z,54.56
2022-09-15T02:03:04.494Z,54.47
2022-09-15T02:05:45.497Z,54.59
2022-09-15T02:08:38.809Z,54.77
2022-09-15T02:11:26.847Z,54.65
2022-09-15T02:14:11.640Z,54.71
2022-09-15T02:16:42.619Z,54.61
2022-09-15T02:19:31.449Z,54.66
2022-09-15T02:22:30.378Z,54.54
2022-09-15T02:25:06.412Z,54.63
2022-09-15T02:27:40.844Z,54.66
2022-09-15T02:30:18.549Z,54.78
2022-09-15T02:33:08.544Z,54.64
2022-09-15T02:35:37.436Z,54.74
2022-09-15T02:38:07.838Z,54.84
2022-09-15T02:40:36.514Z,54.81
2022-09-15T02:43:05.708Z,54.88
2022-09-15T02:45:33.181Z,54.82
2022-09-15T02:48:00.475Z,54.91
2022-09-15T02:50:27.821Z,54.98
2022-09-15T02:53:11.566Z,54.93
2022-09-15T02:55:42.218Z,54.96
2022-09-15T02:58:09.438Z,55.02
2022-09-15T03:00:39.229Z,54.98
2022-09-15T03:03:06.564Z,55.13
2022-09-15T03:05:33.665Z,55.12
2022-09-15T03:08:00.968Z,55.27
2022-09-15T03:10:28.417Z,55.24
2022-09-15T03:12:55.827Z,55.19
2022-09-15T03:15:30.292Z,55.17
2022-09-15T03:18:02.258Z,55.14
2022-09-15T03:20:30.688Z,55.17
2022-09-15T03:22:57.963Z,55.20
2022-09-15T03:25:27.156Z,55.10
2022-09-15T03:27:54.298Z,55.41
2022-09-15T03:30:21.248Z,55.31
2022-09-15T03:32:48.935Z,55.35
2022-09-15T03:35:16.040Z,55.22
2022-09-15T03:37:43.174Z,55.49
2022-09-15T03:40:10.923Z,55.40
2022-09-15T03:42:38.017Z,55.67
2022-09-15T03:45:05.314Z,55.73
2022-09-15T03:47:33.557Z,55.79
2022-09-15T03:50:00.651Z,55.89
2022-09-15T03:52:32.132Z,55.85
2022-09-15T03:54:59.396Z,56.04
2022-09-15T03:57:26.481Z,55.99
2022-09-15T03:59:53.602Z,56.04
2022-09-15T04:02:21.188Z,56.24
2022-09-15T04:04:49.693Z,56.13
2022-09-15T04:07:16.801Z,56.27
2022-09-15T04:09:46.465Z,56.34
2022-09-15T04:12:13.558Z,56.22
2022-09-15T04:14:42.747Z,56.17
2022-09-15T04:17:11.020Z,56.38
2022-09-15T04:19:38.228Z,56.31
2022-09-15T04:22:05.536Z,56.15
2022-09-15T04:24:35.885Z,56.31
2022-09-15T04:27:02.891Z,56.26
2022-09-15T04:29:30.022Z,56.08
2022-09-15T04:31:57.091Z,56.21
2022-09-15T04:34:24.769Z,56.24
2022-09-15T04:36:51.838Z,56.23
2022-09-15T04:39:19.847Z,56.26
2022-09-15T04:41:46.836Z,56.19
2022-09-15T04:44:13.905Z,56.26
2022-09-15T04:46:40.915Z,56.17
2022-09-15T04:49:08.197Z,56.31
2022-09-15T04:51:35.730Z,56.28
2022-09-15T04:54:02.694Z,56.15
2022-09-15T04:56:29.754Z,56.32
2022-09-15T04:59:04.286Z,56.25
2022-09-15T05:01:35.812Z,56.41
2022-09-15T05:04:06.602Z,56.37
2022-09-15T05:06:35.172Z,56.32
2022-09-15T05:09:07.661Z,56.36
2022-09-15T05:11:36.956Z,56.37
2022-09-15T05:14:04.042Z,56.37
2022-09-15T05:16:32.160Z,56.16
2022-09-15T05:19:03.258Z,56.11
2022-09-15T05:21:31.331Z,56.15
2022-09-15T05:24:06.190Z,56.17
2022-09-15T05:26:35.696Z,56.22
2022-09-15T05:29:02.845Z,56.17
2022-09-15T05:31:33.924Z,56.12
2022-09-15T05:34:04.064Z,56.11
2022-09-15T05:36:31.629Z,56.20
2022-09-15T05:39:01.091Z,56.16
2022-09-15T05:41:38.807Z,56.32
2022-09-15T05:44:07.690Z,56.32
2022-09-15T05:46:37.254Z,56.31
2022-09-15T05:49:04.547Z,56.39
2022-09-15T05:51:58.662Z,56.40
2022-09-15T05:54:33.991Z,56.52
2022-09-15T05:57:06.717Z,56.57
2022-09-15T05:59:48.150Z,56.56
2022-09-15T06:02:23.693Z,56.63
2022-09-15T06:04:52.136Z,56.59
2022-09-15T06:07:36.199Z,56.47
2022-09-15T06:10:06.222Z,56.52
2022-09-15T06:12:33.404Z,56.56
2022-09-15T06:15:00.448Z,56.62
2022-09-15T06:17:27.612Z,56.74
2022-09-15T06:20:17.160Z,56.83
2022-09-15T06:22:56.896Z,56.91
2022-09-15T06:25:24.140Z,56.93
2022-09-15T06:27:51.205Z,56.99
2022-09-15T06:30:19.099Z,57.10
2022-09-15T06:32:48.502Z,56.95
2022-09-15T06:35:16.124Z,57.01
2022-09-15T06:37:43.163Z,56.99
2022-09-15T06:40:10.694Z,56.99
2022-09-15T06:42:37.817Z,57.05
2022-09-15T06:45:05.181Z,56.96
2022-09-15T06:47:34.237Z,56.95
2022-09-15T06:50:01.905Z,57.13
2022-09-15T06:52:28.928Z,56.82
2022-09-15T06:54:55.961Z,57.01
2022-09-15T06:57:25.209Z,56.91
2022-09-15T06:59:52.255Z,56.85
2022-09-15T07:02:19.319Z,56.91
2022-09-15T07:04:46.437Z,56.73
2022-09-15T07:07:14.486Z,56.59
2022-09-15T07:09:42.810Z,56.75
2022-09-15T07:12:11.355Z,56.63
2022-09-15T07:14:38.565Z,56.47
2022-09-15T07:17:05.568Z,56.66
2022-09-15T07:19:32.557Z,56.58
2022-09-15T07:21:59.583Z,56.67
2022-09-15T07:24:26.699Z,56.62
2022-09-15T07:26:53.750Z,56.46
2022-09-15T07:29:20.959Z,56.36
2022-09-15T07:31:48.096Z,56.26
2022-09-15T07:34:18.319Z,56.16
2022-09-15T07:36:45.510Z,56.15
2022-09-15T07:39:12.466Z,56.00
2022-09-15T07:41:39.537Z,55.96
2022-09-15T07:44:08.631Z,55.56
2022-09-15T07:46:35.670Z,55.49
2022-09-15T07:49:09.986Z,55.58
2022-09-15T07:51:37.165Z,55.27
2022-09-15T07:54:10.257Z,55.07
2022-09-15T07:56:44.630Z,55.19
2022-09-15T07:59:14.199Z,55.00
2022-09-15T08:02:19.390Z,55.05
2022-09-15T08:04:55.037Z,54.99
2022-09-15T08:07:37.888Z,55.01
2022-09-15T08:10:21.801Z,55.06
2022-09-15T08:13:09.151Z,55.02
2022-09-15T08:16:05.443Z,55.13
2022-09-15T08:19:05.797Z,54.92
2022-09-15T08:21:36.279Z,54.75
2022-09-15T08:24:06.574Z,54.67
2022-09-15T08:26:33.594Z,54.50
2022-09-15T08:29:01.700Z,54.15
2022-09-15T08:31:29.147Z,54.27
2022-09-15T08:34:09.771Z,54.38
2022-09-15T08:36:36.937Z,53.85
2022-09-15T08:39:10.680Z,53.84
2022-09-15T08:41:45.738Z,53.83
2022-09-15T08:44:46.924Z,53.60
2022-09-15T08:47:31.211Z,53.61
2022-09-15T08:50:27.608Z,53.39
2022-09-15T08:53:09.841Z,53.18
2022-09-15T08:55:57.091Z,53.22
2022-09-15T08:58:38.113Z,53.11
2022-09-15T09:01:11.125Z,52.96
2022-09-15T09:04:07.676Z,53.01
2022-09-15T09:07:00.105Z,52.76
2022-09-15T09:09:40.978Z,52.59
2022-09-15T09:12:45.246Z,52.49
2022-09-15T09:15:33.696Z,52.64
2022-09-15T09:18:10.391Z,52.71
2022-09-15T09:20:43.420Z,52.56
2022-09-15T09:23:15.971Z,52.47
2022-09-15T09:25:46.964Z,52.32
2022-09-15T09:28:39.772Z,52.03
2022-09-15T09:31:21.463Z,52.06
2022-09-15T09:34:05.945Z,52.23
2022-09-15T09:36:34.187Z,52.34
2022-09-15T09:39:02.589Z,52.40
2022-09-15T09:41:38.736Z,52.27
2022-09-15T09:44:13.231Z,52.09
2022-09-15T09:46:41.463Z,51.88
2022-09-15T09:49:18.918Z,51.83
2022-09-15T09:51:57.487Z,51.98
2022-09-15T09:54:28.920Z,51.79
2022-09-15T10:00:03.829Z,51.67
2022-09-15T10:02:47.258Z,51.53
2022-09-15T10:05:20.223Z,51.50
2022-09-15T10:07:47.681Z,51.93
2022-09-15T10:10:32.657Z,51.84
2022-09-15T10:13:05.557Z,51.81
2022-09-15T10:15:38.537Z,51.72
2022-09-15T10:18:08.368Z,51.69
2022-09-15T10:20:51.612Z,51.62
2022-09-15T10:23:18.445Z,51.71
2022-09-15T10:26:01.366Z,51.54
2022-09-15T10:28:29.059Z,51.66
2022-09-15T10:30:58.763Z,51.25
2022-09-15T10:33:27.307Z,51.25
2022-09-15T10:36:04.268Z,51.09
2022-09-15T10:38:39.188Z,50.83
2022-09-15T10:41:18.375Z,51.02
2022-09-15T10:44:02.159Z,50.92
2022-09-15T10:46:59.493Z,51.24
2022-09-15T10:49:48.174Z,51.30
2022-09-15T10:52:45.835Z,51.27
2022-09-15T10:55:48.850Z,51.17
2022-09-15T10:58:32.481Z,51.09
2022-09-15T11:01:29.241Z,51.32
2022-09-15T11:04:26.052Z,51.24
2022-09-15T11:07:12.134Z,51.21
2022-09-15T11:09:45.911Z,50.99
2022-09-15T11:12:50.280Z,51.20
2022-09-15T11:15:32.449Z,51.08
2022-09-15T11:18:13.306Z,51.08
2022-09-15T11:21:21.919Z,50.83
2022-09-15T11:23:54.095Z,50.75
2022-09-15T11:26:44.371Z,50.72
2022-09-15T11:29:24.695Z,51.01
2022-09-15T11:32:04.817Z,50.81
2022-09-15T11:34:51.410Z,50.96
2022-09-15T11:37:25.318Z,51.08
2022-09-15T11:39:59.601Z,50.84
2022-09-15T11:42:39.440Z,50.80
2022-09-15T11:45:20.109Z,50.78
2022-09-15T11:48:08.663Z,50.78
2022-09-15T11:50:41.786Z,50.67
2022-09-15T11:53:17.413Z,50.68
2022-09-15T11:55:54.321Z,50.80
2022-09-15T11:58:43.167Z,50.94
2022-09-15T12:01:27.349Z,50.67
2022-09-15T12:04:02.539Z,50.61
2022-09-15T12:06:35.972Z,50.73
2022-09-15T12:09:06.276Z,50.73
2022-09-15T12:11:38.485Z,50.68
2022-09-15T12:14:08.527Z,50.64
2022-09-15T12:16:35.930Z,50.53
2022-09-15T12:22:10.429Z,50.68
2022-09-15T12:25:17.881Z,50.56
2022-09-15T12:28:05.374Z,50.59
2022-09-15T12:30:41.368Z,50.43
2022-09-15T12:33:42.380Z,50.22
2022-09-15T12:36:46.056Z,50.27
2022-09-15T12:39:30.358Z,50.31
2022-09-15T12:42:00.524Z,50.10
2022-09-15T12:44:56.033Z,49.97
2022-09-15T12:47:49.404Z,50.08
2022-09-15T12:50:20.305Z,50.22
2022-09-15T12:53:01.810Z,50.19
2022-09-15T12:55:53.623Z,49.76
2022-09-15T12:58:42.220Z,49.64
2022-09-15T13:01:20.938Z,49.39
2022-09-15T13:04:08.617Z,49.46
2022-09-15T13:06:36.127Z,49.14
2022-09-15T13:09:06.009Z,49.08
2022-09-15T13:11:37.889Z,48.53
2022-09-15T13:14:07.706Z,48.73
2022-09-15T13:16:41.463Z,48.77
2022-09-15T13:19:33.909Z,48.47
2022-09-15T13:22:06.757Z,48.39
2022-09-15T13:24:50.718Z,48.40
2022-09-15T13:27:23.633Z,48.37
2022-09-15T13:30:04.095Z,47.65
2022-09-15T13:32:52.833Z,48.26
2022-09-15T13:35:58.670Z,48.19
2022-09-15T13:38:54.953Z,48.25
2022-09-15T13:41:27.889Z,48.28
2022-09-15T13:44:23.541Z,48.13
2022-09-15T13:47:27.888Z,47.86
2022-09-15T13:50:07.238Z,47.94
2022-09-15T13:53:05.619Z,47.84
2022-09-15T13:55:38.738Z,47.93
2022-09-15T14:01:07.040Z,47.82
2022-09-15T14:03:46.096Z,47.82
2022-09-15T14:06:34.279Z,47.87
2022-09-15T14:09:09.420Z,47.70
2022-09-15T14:11:38.083Z,47.69
2022-09-15T14:14:21.272Z,47.72
2022-09-15T14:16:52.432Z,47.40
2022-09-15T14:19:33.696Z,47.27
2022-09-15T14:22:27.930Z,47.06
2022-09-15T14:24:57.655Z,47.37
2022-09-15T14:27:35.987Z,47.13
2022-09-15T14:30:06.722Z,47.17
2022-09-15T14:32:46.548Z,47.33
2022-09-15T14:35:19.851Z,47.36
2022-09-15T14:37:50.326Z,47.50
2022-09-15T14:40:28.440Z,47.71
2022-09-15T14:42:56.247Z,47.78
2022-09-15T14:48:28.378Z,47.73
2022-09-15T14:51:03.005Z,47.82
2022-09-15T14:53:35.125Z,47.75
2022-09-15T14:56:14.448Z,47.80
2022-09-15T14:58:48.382Z,47.69
2022-09-15T15:01:50.286Z,47.68
2022-09-15T15:04:39.421Z,47.71
2022-09-15T15:07:22.951Z,47.77
2022-09-15T15:09:56.760Z,48.14
2022-09-15T15:12:54.220Z,48.13
2022-09-15T15:15:21.759Z,47.89
2022-09-15T15:17:51.857Z,47.94
2022-09-15T15:20:49.081Z,47.99
2022-09-15T15:23:23.791Z,47.93
2022-09-15T15:29:43.566Z,48.00
2022-09-15T15:32:12.679Z,48.03
2022-09-15T15:34:40.319Z,48.40
2022-09-15T15:37:39.800Z,48.41
2022-09-15T15:40:17.517Z,48.88
2022-09-15T15:43:05.068Z,49.01
2022-09-15T15:45:34.800Z,49.22
2022-09-15T15:48:04.482Z,49.32
2022-09-15T15:50:34.865Z,49.34
2022-09-15T15:53:02.966Z,49.40
2022-09-15T15:55:43.390Z,49.52
2022-09-15T15:58:15.296Z,49.60
2022-09-15T16:00:44.419Z,49.70
2022-09-15T16:03:12.695Z,49.73
2022-09-15T16:05:43.950Z,49.88
2022-09-15T16:08:18.832Z,50.04
2022-09-15T16:10:49.636Z,50.27
2022-09-15T16:13:22.200Z,50.32
2022-09-15T16:15:49.974Z,50.63
2022-09-15T16:18:17.090Z,50.70
2022-09-15T16:20:44.340Z,50.63
2022-09-15T16:23:17.710Z,50.80
2022-09-15T16:26:06.024Z,50.77
2022-09-15T16:28:33.375Z,51.06
2022-09-15T16:31:00.486Z,51.04
2022-09-15T16:33:27.513Z,51.07
2022-09-15T16:36:03.902Z,51.37
2022-09-15T16:38:33.200Z,51.38
2022-09-15T16:44:35.490Z,51.49
2022-09-15T16:47:03.056Z,51.80
2022-09-15T16:49:30.351Z,51.76
2022-09-15T16:51:57.423Z,51.80
2022-09-15T16:54:24.362Z,51.92
2022-09-15T16:56:53.622Z,52.02
2022-09-15T16:59:20.799Z,52.13
2022-09-15T17:02:04.266Z,52.34
2022-09-15T17:04:38.975Z,52.51
2022-09-15T17:07:33.509Z,52.67
2022-09-15T17:10:03.832Z,52.89
2022-09-15T17:12:30.875Z,52.96
2022-09-15T17:14:57.894Z,53.04
2022-09-15T17:17:25.874Z,52.90
2022-09-15T17:19:53.047Z,53.09
2022-09-15T17:22:23.035Z,53.32
2022-09-15T17:25:00.373Z,53.27
2022-09-15T17:27:27.494Z,53.48
2022-09-15T17:29:54.649Z,53.52
2022-09-15T17:32:21.605Z,53.79
2022-09-15T17:34:48.710Z,53.92
2022-09-15T17:37:18.631Z,54.10
2022-09-15T17:39:46.554Z,54.32
2022-09-15T17:42:13.479Z,54.44
2022-09-15T17:44:40.606Z,54.16
2022-09-15T17:47:07.528Z,54.13
2022-09-15T17:49:39.297Z,54.51
2022-09-15T17:52:14.675Z,54.79
2022-09-15T17:54:41.859Z,54.80
2022-09-15T17:57:08.927Z,54.69
2022-09-15T17:59:36.218Z,54.47
2022-09-15T18:02:04.598Z,54.86
2022-09-15T18:04:34.616Z,54.92
2022-09-15T18:07:01.678Z,55.10
2022-09-15T18:09:28.715Z,55.24
2022-09-15T18:11:55.730Z,55.12
2022-09-15T18:14:22.682Z,55.25
2022-09-15T18:17:17.359Z,55.37
2022-09-15T18:23:34.429Z,55.44
2022-09-15T18:26:27.103Z,55.40
2022-09-15T18:28:55.459Z,55.50
2022-09-15T18:31:23.948Z,55.38
2022-09-15T18:33:52.769Z,55.53
2022-09-15T18:36:19.846Z,55.59
2022-09-15T18:38:46.976Z,55.40
2022-09-15T18:41:14.135Z,55.55
2022-09-15T18:43:41.377Z,55.46
2022-09-15T18:46:08.564Z,55.44
2022-09-15T18:48:35.707Z,55.37
2022-09-15T18:51:08.553Z,55.34
2022-09-15T18:53:38.760Z,55.62
2022-09-15T18:56:14.636Z,55.46
2022-09-15T18:58:44.792Z,55.46
2022-09-15T19:01:21.593Z,55.52
2022-09-15T19:03:49.551Z,55.79
2022-09-15T19:06:16.746Z,55.83
2022-09-15T19:08:43.987Z,55.86
2022-09-15T19:11:11.109Z,55.93
2022-09-15T19:13:38.541Z,56.16
2022-09-15T19:16:09.725Z,56.10
2022-09-15T19:18:37.215Z,56.48
2022-09-15T19:21:09.757Z,56.36
2022-09-15T19:23:53.193Z,56.65
2022-09-15T19:26:26.009Z,56.67
2022-09-15T19:28:53.015Z,56.66
2022-09-15T19:31:20.197Z,56.73
2022-09-15T19:33:47.250Z,56.85
2022-09-15T19:36:28.107Z,56.92
2022-09-15T19:38:56.497Z,56.88
2022-09-15T19:41:23.977Z,56.91
2022-09-15T19:43:51.235Z,57.19
2022-09-15T19:46:24.293Z,57.33
2022-09-15T19:48:53.093Z,57.28
2022-09-15T19:51:21.043Z,57.48
2022-09-15T19:53:58.176Z,57.58
2022-09-15T19:56:40.095Z,57.24
2022-09-15T19:59:20.516Z,57.45
2022-09-15T20:01:48.483Z,57.55
2022-09-15T20:04:16.063Z,57.37
2022-09-15T20:09:26.900Z,57.53
2022-09-15T20:11:54.285Z,57.50
2022-09-15T20:14:48.495Z,57.38
2022-09-15T20:17:15.806Z,57.74
2022-09-15T20:19:43.191Z,57.69
2022-09-15T20:22:10.481Z,57.71
2022-09-15T20:24:37.679Z,58.00
2022-09-15T20:27:05.083Z,57.89
2022-09-15T20:29:32.318Z,57.98
2022-09-15T20:31:59.493Z,58.11
2022-09-15T20:34:26.691Z,58.18
2022-09-15T20:36:56.496Z,58.21
2022-09-15T20:39:23.924Z,58.39
2022-09-15T20:41:54.938Z,58.42
2022-09-15T20:44:22.158Z,58.64
2022-09-15T20:46:49.312Z,58.47
2022-09-15T20:49:16.557Z,58.63
2022-09-15T20:51:43.851Z,58.65
2022-09-15T20:54:11.602Z,58.75
2022-09-15T20:56:38.684Z,58.68
2022-09-15T20:59:09.353Z,58.39
2022-09-15T21:01:39.185Z,58.69
2022-09-15T21:04:10.318Z,58.95
2022-09-15T21:06:38.483Z,58.90
2022-09-15T21:09:06.149Z,58.89
2022-09-15T21:11:34.119Z,59.07
2022-09-15T21:14:01.710Z,59.18
2022-09-15T21:16:29.567Z,59.10
2022-09-15T21:19:02.657Z,58.98
2022-09-15T21:21:38.510Z,58.99
2022-09-15T21:24:12.226Z,58.77
2022-09-15T21:46:15.236Z,58.99
2022-09-15T21:48:44.953Z,58.99
2022-09-15T21:51:14.641Z,59.19
2022-09-15T21:53:42.770Z,59.00
2022-09-15T21:56:12.261Z,59.24
2022-09-15T21:58:42.921Z,59.43
2022-09-15T22:01:19.215Z,59.25
2022-09-15T22:03:52.091Z,59.35
2022-09-15T22:06:21.653Z,59.40
2022-09-15T22:08:49.346Z,59.49
2022-09-15T22:11:16.450Z,59.68
2022-09-15T22:13:44.967Z,59.94
2022-09-15T22:16:17.054Z,60.07
2022-09-15T22:18:45.351Z,59.99
2022-09-15T22:21:24.324Z,60.02
2022-09-15T22:23:54.149Z,59.89
2022-09-15T22:26:25.665Z,59.78
2022-09-15T22:28:53.227Z,59.79
2022-09-15T22:31:21.942Z,59.79
2022-09-15T22:33:49.363Z,59.73
2022-09-15T22:36:19.030Z,59.80
2022-09-15T22:38:46.852Z,59.93
2022-09-15T22:41:18.969Z,59.89
2022-09-15T22:43:51.734Z,59.95
2022-09-15T22:46:20.167Z,60.11
2022-09-15T22:48:47.944Z,60.13
2022-09-15T22:51:15.656Z,60.02
2022-09-15T22:53:43.050Z,60.29
2022-09-15T22:56:20.326Z,60.30
2022-09-15T22:58:49.635Z,60.71
2022-09-15T23:01:24.433Z,60.52
2022-09-15T23:04:02.484Z,60.51
2022-09-15T23:06:32.382Z,60.63
2022-09-15T23:09:02.814Z,60.46
2022-09-15T23:11:32.622Z,60.34
2022-09-15T23:14:00.697Z,60.40
2022-09-15T23:16:28.582Z,60.39
2022-09-15T23:18:55.822Z,60.38
2022-09-15T23:21:25.510Z,60.27
2022-09-15T23:23:54.640Z,60.22
2022-09-15T23:26:25.794Z,60.36
2022-09-15T23:28:53.464Z,60.27
2022-09-15T23:31:20.996Z,60.28
2022-09-15T23:33:50.984Z,60.30
2022-09-15T23:36:22.524Z,60.33
2022-09-15T23:38:50.263Z,60.42
2022-09-15T23:41:17.909Z,60.34
2022-09-15T23:43:45.908Z,60.50
2022-09-15T23:46:13.719Z,60.60
2022-09-15T23:48:40.947Z,60.49
2022-09-15T23:51:09.085Z,60.47
2022-09-15T23:53:36.634Z,60.25
2022-09-15T23:56:04.391Z,60.42
2022-09-15T23:58:31.563Z,60.29
